Terminal Aerodrome Forecast
Issued by NWS Blacksburg, VA

Current Version | Previous Version | Graphics & Text | Print | Product List | Glossary On
Versions: 1 2 3 4 5 6 7 8 9 10 11 12 13 14 15 16 17 18 19 20 21 22 23 24 25 26 27 28 29 30 31 32 33 34 35 36 37 38 39 40 41 42 43
000
FTUS41 KRNK 250944 AAA
TAFBLF
TAF AMD
KBLF 250944Z 2510/2606 16008G18KT P6SM OVC015
     FM251600 21010G20KT P6SM BKN050
     FM252200 22008KT P6SM OVC040
     FM260100 16005KT P6SM OVC025=

USA.gov is the U.S. government's official web portal to all federal, state and local government web resources and services.